sensor_id;sensor_type;location;lat;lon;timestamp;pressure;altitude;pressure_sealevel;temperature;humidity
75549;BME280;64133;56.002;37.208;2022-11-10T00:02:35;99230.98;;;8.46;84.63
75549;BME280;64133;56.002;37.208;2022-11-10T00:07:39;99236.94;;;8.48;84.59
75549;BME280;64133;56.002;37.208;2022-11-10T00:12:44;99226.69;;;8.45;84.55
75549;BME280;64133;56.002;37.208;2022-11-10T00:17:49;99221.79;;;8.51;84.21
75549;BME280;64133;56.002;37.208;2022-11-10T00:22:54;99226.69;;;8.45;84.47
75549;BME280;64133;56.002;37.208;2022-11-10T00:27:59;99219.73;;;8.44;84.50
75549;BME280;64133;56.002;37.208;2022-11-10T00:33:04;99221.05;;;8.44;84.48
75549;BME280;64133;56.002;37.208;2022-11-10T00:38:09;99222.84;;;8.43;84.42
75549;BME280;64133;56.002;37.208;2022-11-10T00:43:14;99220.09;;;8.39;84.31
75549;BME280;64133;56.002;37.208;2022-11-10T00:48:18;99218.55;;;8.42;84.37
75549;BME280;64133;56.002;37.208;2022-11-10T00:53:23;99211.16;;;8.47;84.45
75549;BME280;64133;56.002;37.208;2022-11-10T00:58:28;99216.06;;;8.46;84.26
75549;BME280;64133;56.002;37.208;2022-11-10T01:03:33;99212.47;;;8.42;84.25
75549;BME280;64133;56.002;37.208;2022-11-10T01:08:38;99215.16;;;8.35;84.32
75549;BME280;64133;56.002;37.208;2022-11-10T01:13:43;99216.76;;;8.43;84.30
75549;BME280;64133;56.002;37.208;2022-11-10T01:18:50;99210.25;;;8.36;84.21
75549;BME280;64133;56.002;37.208;2022-11-10T01:23:55;99201.23;;;8.40;84.13
75549;BME280;64133;56.002;37.208;2022-11-10T01:29:00;99198.38;;;8.37;84.18
75549;BME280;64133;56.002;37.208;2022-11-10T01:34:05;99202.38;;;8.36;84.26
75549;BME280;64133;56.002;37.208;2022-11-10T01:39:10;99199.66;;;8.31;84.32
75549;BME280;64133;56.002;37.208;2022-11-10T01:44:16;99213.13;;;8.33;84.28
75549;BME280;64133;56.002;37.208;2022-11-10T01:49:21;99211.28;;;8.40;84.49
75549;BME280;64133;56.002;37.208;2022-11-10T01:54:26;99215.02;;;8.30;84.29
75549;BME280;64133;56.002;37.208;2022-11-10T01:59:31;99207.63;;;8.36;84.37
75549;BME280;64133;56.002;37.208;2022-11-10T02:04:36;99203.55;;;8.26;84.53
75549;BME280;64133;56.002;37.208;2022-11-10T02:09:41;99203.91;;;8.27;84.49
75549;BME280;64133;56.002;37.208;2022-11-10T02:14:45;99199.01;;;8.22;84.59
75549;BME280;64133;56.002;37.208;2022-11-10T02:19:51;99198.78;;;8.20;84.60
75549;BME280;64133;56.002;37.208;2022-11-10T02:24:56;99210.46;;;8.21;84.70
75549;BME280;64133;56.002;37.208;2022-11-10T02:30:01;99201.67;;;8.28;84.44
75549;BME280;64133;56.002;37.208;2022-11-10T02:35:07;99209.75;;;8.19;84.55
75549;BME280;64133;56.002;37.208;2022-11-10T02:40:13;99210.59;;;8.20;84.68
75549;BME280;64133;56.002;37.208;2022-11-10T02:45:18;99219.16;;;8.16;84.62
75549;BME280;64133;56.002;37.208;2022-11-10T02:50:23;99208.88;;;8.13;84.72
75549;BME280;64133;56.002;37.208;2022-11-10T02:55:28;99219.38;;;8.13;84.87
75549;BME280;64133;56.002;37.208;2022-11-10T03:00:33;99213.30;;;8.13;84.48
75549;BME280;64133;56.002;37.208;2022-11-10T03:05:38;99203.28;;;8.12;84.52
75549;BME280;64133;56.002;37.208;2022-11-10T03:10:43;99201.41;;;8.20;84.61
75549;BME280;64133;56.002;37.208;2022-11-10T03:15:48;99208.27;;;8.10;84.49
75549;BME280;64133;56.002;37.208;2022-11-10T03:20:53;99202.39;;;8.00;84.64
75549;BME280;64133;56.002;37.208;2022-11-10T03:25:58;99199.54;;;7.98;84.66
75549;BME280;64133;56.002;37.208;2022-11-10T03:31:03;99199.09;;;8.10;84.35
75549;BME280;64133;56.002;37.208;2022-11-10T03:36:09;99188.45;;;8.00;84.58
75549;BME280;64133;56.002;37.208;2022-11-10T03:41:14;99197.35;;;7.92;84.78
75549;BME280;64133;56.002;37.208;2022-11-10T03:46:19;99176.37;;;7.92;84.86
75549;BME280;64133;56.002;37.208;2022-11-10T03:51:24;99169.81;;;7.92;84.94
75549;BME280;64133;56.002;37.208;2022-11-10T03:56:29;99162.69;;;7.94;84.95
75549;BME280;64133;56.002;37.208;2022-11-10T04:01:34;99158.48;;;7.91;85.00
75549;BME280;64133;56.002;37.208;2022-11-10T04:06:39;99157.29;;;7.84;85.04
75549;BME280;64133;56.002;37.208;2022-11-10T04:18:18;99166.47;;;7.84;85.24
75549;BME280;64133;56.002;37.208;2022-11-10T04:23:28;99164.39;;;7.71;85.33
75549;BME280;64133;56.002;37.208;2022-11-10T04:28:34;99177.37;;;7.72;85.54
75549;BME280;64133;56.002;37.208;2022-11-10T04:33:39;99179.23;;;7.65;85.52
75549;BME280;64133;56.002;37.208;2022-11-10T04:57:35;99108.66;;;7.08;85.63
75549;BME280;64133;56.002;37.208;2022-11-10T05:02:40;99183.96;;;7.54;85.65
75549;BME280;64133;56.002;37.208;2022-11-10T05:07:47;99191.34;;;7.54;85.73
75549;BME280;64133;56.002;37.208;2022-11-10T05:12:54;99191.83;;;7.54;85.67
75549;BME280;64133;56.002;37.208;2022-11-10T05:17:59;99197.07;;;7.54;85.85
75549;BME280;64133;56.002;37.208;2022-11-10T05:23:03;99209.36;;;7.59;85.79
75549;BME280;64133;56.002;37.208;2022-11-10T05:28:26;99201.42;;;7.48;85.64
75549;BME280;64133;56.002;37.208;2022-11-10T05:33:31;99208.09;;;7.46;85.81
75549;BME280;64133;56.002;37.208;2022-11-10T05:38:36;99204.05;;;7.48;85.76
75549;BME280;64133;56.002;37.208;2022-11-10T05:43:41;99208.09;;;7.46;85.75
75549;BME280;64133;56.002;37.208;2022-11-10T05:48:46;99206.30;;;7.47;85.68
75549;BME280;64133;56.002;37.208;2022-11-10T05:53:51;99205.97;;;7.51;85.56
75549;BME280;64133;56.002;37.208;2022-11-10T05:58:56;99205.06;;;7.40;85.59
75549;BME280;64133;56.002;37.208;2022-11-10T06:09:15;99211.19;;;7.46;85.48
75549;BME280;64133;56.002;37.208;2022-11-10T06:14:20;99202.20;;;7.37;85.55
75549;BME280;64133;56.002;37.208;2022-11-10T06:19:25;99208.55;;;7.40;85.63
75549;BME280;64133;56.002;37.208;2022-11-10T06:24:30;99199.17;;;7.30;85.30
75549;BME280;64133;56.002;37.208;2022-11-10T06:29:35;99209.77;;;7.29;85.44
75549;BME280;64133;56.002;37.208;2022-11-10T06:34:40;99198.16;;;7.20;85.46
75549;BME280;64133;56.002;37.208;2022-11-10T06:39:45;99210.57;;;7.24;85.37
75549;BME280;64133;56.002;37.208;2022-11-10T06:44:50;99203.48;;;7.32;85.14
75549;BME280;64133;56.002;37.208;2022-11-10T06:49:55;99203.52;;;7.37;85.10
75549;BME280;64133;56.002;37.208;2022-11-10T06:55:00;99214.86;;;7.43;84.55
75549;BME280;64133;56.002;37.208;2022-11-10T07:00:07;99208.78;;;7.43;84.56
75549;BME280;64133;56.002;37.208;2022-11-10T07:05:12;99223.37;;;7.52;84.41
75549;BME280;64133;56.002;37.208;2022-11-10T07:10:17;99226.34;;;7.66;83.94
75549;BME280;64133;56.002;37.208;2022-11-10T07:15:22;99215.96;;;7.70;83.67
75549;BME280;64133;56.002;37.208;2022-11-10T07:20:27;99213.42;;;7.87;83.45
75549;BME280;64133;56.002;37.208;2022-11-10T07:25:32;99207.39;;;7.68;83.01
75549;BME280;64133;56.002;37.208;2022-11-10T07:30:37;99217.75;;;7.88;82.95
75549;BME280;64133;56.002;37.208;2022-11-10T07:35:42;99217.16;;;7.66;82.87
75549;BME280;64133;56.002;37.208;2022-11-10T07:40:48;99210.59;;;7.48;83.38
75549;BME280;64133;56.002;37.208;2022-11-10T07:51:06;99217.53;;;7.49;83.64
75549;BME280;64133;56.002;37.208;2022-11-10T07:56:11;99219.11;;;7.57;83.49
75549;BME280;64133;56.002;37.208;2022-11-10T08:06:47;99216.64;;;7.43;83.07
75549;BME280;64133;56.002;37.208;2022-11-10T08:11:52;99226.26;;;7.55;83.33
75549;BME280;64133;56.002;37.208;2022-11-10T08:16:57;99236.51;;;7.76;82.84
75549;BME280;64133;56.002;37.208;2022-11-10T08:22:03;99231.23;;;7.52;82.79
75549;BME280;64133;56.002;37.208;2022-11-10T08:27:08;99243.32;;;7.61;82.75
75549;BME280;64133;56.002;37.208;2022-11-10T08:32:13;99238.55;;;7.60;82.84
75549;BME280;64133;56.002;37.208;2022-11-10T08:37:18;99227.71;;;7.59;82.52
75549;BME280;64133;56.002;37.208;2022-11-10T08:42:23;99230.00;;;7.64;82.73
75549;BME280;64133;56.002;37.208;2022-11-10T08:47:28;99221.84;;;7.55;82.84
75549;BME280;64133;56.002;37.208;2022-11-10T08:52:33;99221.67;;;7.46;82.80
75549;BME280;64133;56.002;37.208;2022-11-10T08:57:38;99227.56;;;7.55;82.79
75549;BME280;64133;56.002;37.208;2022-11-10T09:02:43;99219.16;;;7.63;82.76
75549;BME280;64133;56.002;37.208;2022-11-10T09:07:48;99221.40;;;7.80;82.31
75549;BME280;64133;56.002;37.208;2022-11-10T09:12:53;99215.39;;;7.72;82.11
75549;BME280;64133;56.002;37.208;2022-11-10T09:17:58;99211.25;;;7.75;82.25
75549;BME280;64133;56.002;37.208;2022-11-10T09:23:06;99208.63;;;7.75;81.93
75549;BME280;64133;56.002;37.208;2022-11-10T09:28:13;99214.56;;;7.72;81.87
75549;BME280;64133;56.002;37.208;2022-11-10T09:33:17;99206.69;;;7.72;82.18
75549;BME280;64133;56.002;37.208;2022-11-10T09:38:22;99216.58;;;7.50;82.47
75549;BME280;64133;56.002;37.208;2022-11-10T09:43:29;99210.21;;;7.41;82.76
75549;BME280;64133;56.002;37.208;2022-11-10T09:48:34;99220.49;;;7.68;82.74
75549;BME280;64133;56.002;37.208;2022-11-10T09:53:40;99218.03;;;7.78;82.42
75549;BME280;64133;56.002;37.208;2022-11-10T09:58:43;99219.01;;;7.83;82.14
75549;BME280;64133;56.002;37.208;2022-11-10T10:03:51;99211.09;;;8.01;81.62
75549;BME280;64133;56.002;37.208;2022-11-10T10:09:01;99226.57;;;7.69;82.33
75549;BME280;64133;56.002;37.208;2022-11-10T10:19:29;99216.73;;;8.02;81.78
75549;BME280;64133;56.002;37.208;2022-11-10T10:24:33;99226.20;;;7.92;81.62
75549;BME280;64133;56.002;37.208;2022-11-10T10:29:40;99226.19;;;8.10;81.55
75549;BME280;64133;56.002;37.208;2022-11-10T10:34:44;99224.20;;;7.95;81.40
75549;BME280;64133;56.002;37.208;2022-11-10T10:39:50;99228.05;;;8.02;81.67
75549;BME280;64133;56.002;37.208;2022-11-10T10:45:16;99225.28;;;7.93;81.68
75549;BME280;64133;56.002;37.208;2022-11-10T10:50:27;99229.55;;;7.88;81.79
75549;BME280;64133;56.002;37.208;2022-11-10T10:55:30;99225.03;;;7.96;81.83
75549;BME280;64133;56.002;37.208;2022-11-10T11:00:40;99227.88;;;8.22;81.39
75549;BME280;64133;56.002;37.208;2022-11-10T11:05:54;99231.31;;;8.17;81.07
75549;BME280;64133;56.002;37.208;2022-11-10T11:11:06;99227.58;;;8.03;81.41
75549;BME280;64133;56.002;37.208;2022-11-10T11:16:11;99227.84;;;7.87;81.71
75549;BME280;64133;56.002;37.208;2022-11-10T11:21:23;99227.31;;;8.30;81.30
75549;BME280;64133;56.002;37.208;2022-11-10T11:26:28;99227.91;;;8.28;80.73
75549;BME280;64133;56.002;37.208;2022-11-10T11:31:35;99250.42;;;8.19;80.81
75549;BME280;64133;56.002;37.208;2022-11-10T11:36:39;99225.91;;;8.31;80.39
75549;BME280;64133;56.002;37.208;2022-11-10T11:41:45;99220.95;;;8.16;80.96
75549;BME280;64133;56.002;37.208;2022-11-10T11:46:50;99216.95;;;7.99;81.24
75549;BME280;64133;56.002;37.208;2022-11-10T11:51:56;99222.39;;;7.90;81.64
75549;BME280;64133;56.002;37.208;2022-11-10T11:57:02;99229.37;;;8.02;81.61
75549;BME280;64133;56.002;37.208;2022-11-10T12:02:36;99219.42;;;7.95;81.37
75549;BME280;64133;56.002;37.208;2022-11-10T12:07:43;99230.52;;;7.93;81.87
75549;BME280;64133;56.002;37.208;2022-11-10T12:18:30;99236.97;;;8.00;81.51
75549;BME280;64133;56.002;37.208;2022-11-10T12:23:38;99251.38;;;7.94;81.88
75549;BME280;64133;56.002;37.208;2022-11-10T12:28:42;99246.87;;;7.78;82.04
75549;BME280;64133;56.002;37.208;2022-11-10T12:33:47;99250.39;;;7.84;82.25
75549;BME280;64133;56.002;37.208;2022-11-10T12:38:54;99255.09;;;7.79;82.15
75549;BME280;64133;56.002;37.208;2022-11-10T12:44:05;99257.17;;;7.87;82.27
75549;BME280;64133;56.002;37.208;2022-11-10T12:49:12;99254.52;;;7.75;82.37
75549;BME280;64133;56.002;37.208;2022-11-10T12:54:16;99255.70;;;7.77;82.33
75549;BME280;64133;56.002;37.208;2022-11-10T12:59:29;99249.50;;;7.78;82.34
75549;BME280;64133;56.002;37.208;2022-11-10T13:04:33;99250.12;;;7.81;82.37
75549;BME280;64133;56.002;37.208;2022-11-10T13:09:39;99255.02;;;7.80;82.30
75549;BME280;64133;56.002;37.208;2022-11-10T13:14:43;99254.05;;;7.81;82.07
75549;BME280;64133;56.002;37.208;2022-11-10T13:19:52;99257.13;;;7.75;82.11
75549;BME280;64133;56.002;37.208;2022-11-10T13:30:40;99264.47;;;7.70;82.36
75549;BME280;64133;56.002;37.208;2022-11-10T13:35:53;99268.19;;;7.73;82.27
75549;BME280;64133;56.002;37.208;2022-11-10T13:41:11;99268.16;;;7.68;82.14
75549;BME280;64133;56.002;37.208;2022-11-10T13:46:16;99280.31;;;7.69;82.29
75549;BME280;64133;56.002;37.208;2022-11-10T13:51:34;99286.04;;;7.68;82.36
75549;BME280;64133;56.002;37.208;2022-11-10T13:56:50;99290.09;;;7.67;82.42
75549;BME280;64133;56.002;37.208;2022-11-10T14:01:53;99291.22;;;7.75;82.32
75549;BME280;64133;56.002;37.208;2022-11-10T14:06:58;99286.16;;;7.67;82.42
75549;BME280;64133;56.002;37.208;2022-11-10T14:12:05;99286.06;;;7.74;82.33
75549;BME280;64133;56.002;37.208;2022-11-10T14:17:16;99279.22;;;7.66;82.54
75549;BME280;64133;56.002;37.208;2022-11-10T14:22:23;99259.31;;;7.63;82.67
75549;BME280;64133;56.002;37.208;2022-11-10T14:27:27;99253.13;;;7.64;82.62
75549;BME280;64133;56.002;37.208;2022-11-10T14:32:31;99270.19;;;7.70;82.85
75549;BME280;64133;56.002;37.208;2022-11-10T14:42:50;99291.22;;;7.75;82.85
75549;BME280;64133;56.002;37.208;2022-11-10T14:47:55;99300.73;;;7.71;82.80
75549;BME280;64133;56.002;37.208;2022-11-10T14:53:01;99292.12;;;7.69;83.00
75549;BME280;64133;56.002;37.208;2022-11-10T14:58:06;99316.91;;;7.70;83.14
75549;BME280;64133;56.002;37.208;2022-11-10T15:03:12;99318.34;;;7.69;82.95
75549;BME280;64133;56.002;37.208;2022-11-10T15:08:15;99319.67;;;7.74;83.24
75549;BME280;64133;56.002;37.208;2022-11-10T15:13:31;99315.03;;;7.72;83.22
75549;BME280;64133;56.002;37.208;2022-11-10T15:23:41;99259.17;;;7.59;83.22
75549;BME280;64133;56.002;37.208;2022-11-10T15:28:46;99276.86;;;7.68;83.28
75549;BME280;64133;56.002;37.208;2022-11-10T15:39:13;99279.01;;;7.69;83.43
75549;BME280;64133;56.002;37.208;2022-11-10T15:44:17;99289.55;;;7.62;83.57
75549;BME280;64133;56.002;37.208;2022-11-10T15:49:23;99306.30;;;7.66;83.61
75549;BME280;64133;56.002;37.208;2022-11-10T15:54:28;99292.56;;;7.63;83.61
75549;BME280;64133;56.002;37.208;2022-11-10T15:59:32;99290.66;;;7.65;83.57
75549;BME280;64133;56.002;37.208;2022-11-10T16:04:37;99290.42;;;7.62;83.67
75549;BME280;64133;56.002;37.208;2022-11-10T16:09:42;99290.09;;;7.67;83.55
75549;BME280;64133;56.002;37.208;2022-11-10T16:14:48;99289.88;;;7.57;83.71
75549;BME280;64133;56.002;37.208;2022-11-10T16:19:53;99276.75;;;7.51;83.87
75549;BME280;64133;56.002;37.208;2022-11-10T16:24:58;99282.25;;;7.54;83.96
75549;BME280;64133;56.002;37.208;2022-11-10T16:30:04;99289.85;;;7.51;83.83
75549;BME280;64133;56.002;37.208;2022-11-10T16:35:13;99290.80;;;7.50;83.83
75549;BME280;64133;56.002;37.208;2022-11-10T16:40:18;99288.12;;;7.58;83.92
75549;BME280;64133;56.002;37.208;2022-11-10T16:45:23;99294.56;;;7.59;83.72
75549;BME280;64133;56.002;37.208;2022-11-10T16:50:32;99292.09;;;7.63;83.65
75549;BME280;64133;56.002;37.208;2022-11-10T16:55:36;99294.05;;;7.54;83.82
75549;BME280;64133;56.002;37.208;2022-11-10T17:00:42;99295.72;;;7.55;83.81
75549;BME280;64133;56.002;37.208;2022-11-10T17:05:47;99288.81;;;7.54;83.58
75549;BME280;64133;56.002;37.208;2022-11-10T17:10:52;99282.67;;;7.48;83.76
75549;BME280;64133;56.002;37.208;2022-11-10T17:15:58;99294.05;;;7.54;84.03
75549;BME280;64133;56.002;37.208;2022-11-10T17:21:02;99302.92;;;7.46;83.75
75549;BME280;64133;56.002;37.208;2022-11-10T17:26:10;99283.47;;;7.43;83.59
75549;BME280;64133;56.002;37.208;2022-11-10T17:31:15;99284.78;;;7.43;83.73
75549;BME280;64133;56.002;37.208;2022-11-10T17:36:20;99307.48;;;7.49;83.67
75549;BME280;64133;56.002;37.208;2022-11-10T17:41:25;99306.34;;;7.41;83.63
75549;BME280;64133;56.002;37.208;2022-11-10T17:46:30;99300.83;;;7.38;83.75
75549;BME280;64133;56.002;37.208;2022-11-10T17:51:35;99296.12;;;7.30;84.02
75549;BME280;64133;56.002;37.208;2022-11-10T17:56:40;99290.20;;;7.34;83.89
75549;BME280;64133;56.002;37.208;2022-11-10T18:01:45;99293.94;;;7.24;84.06
75549;BME280;64133;56.002;37.208;2022-11-10T18:06:50;99294.61;;;7.21;84.26
75549;BME280;64133;56.002;37.208;2022-11-10T18:11:55;99298.81;;;7.23;84.42
75549;BME280;64133;56.002;37.208;2022-11-10T18:17:00;99305.84;;;7.23;84.45
75549;BME280;64133;56.002;37.208;2022-11-10T18:22:05;99303.58;;;7.24;84.26
75549;BME280;64133;56.002;37.208;2022-11-10T18:32:24;99301.20;;;7.26;84.50
75549;BME280;64133;56.002;37.208;2022-11-10T18:37:29;99305.57;;;7.08;84.55
75549;BME280;64133;56.002;37.208;2022-11-10T18:42:34;99302.98;;;7.13;84.48
75549;BME280;64133;56.002;37.208;2022-11-10T18:47:39;99296.67;;;7.10;84.47
75549;BME280;64133;56.002;37.208;2022-11-10T18:52:44;99310.13;;;7.11;84.55
75549;BME280;64133;56.002;37.208;2022-11-10T18:57:49;99308.94;;;6.97;84.61
75549;BME280;64133;56.002;37.208;2022-11-10T19:02:54;99300.84;;;6.87;84.83
75549;BME280;64133;56.002;37.208;2022-11-10T19:07:59;99303.45;;;6.87;84.96
75549;BME280;64133;56.002;37.208;2022-11-10T19:13:04;99289.61;;;6.92;84.89
75549;BME280;64133;56.002;37.208;2022-11-10T19:18:09;99301.98;;;6.83;84.74
75549;BME280;64133;56.002;37.208;2022-11-10T19:23:14;99305.99;;;6.89;85.09
75549;BME280;64133;56.002;37.208;2022-11-10T19:28:20;99300.33;;;6.95;84.71
75549;BME280;64133;56.002;37.208;2022-11-10T19:33:25;99306.47;;;6.88;84.74
75549;BME280;64133;56.002;37.208;2022-11-10T19:38:29;99312.11;;;6.95;84.70
75549;BME280;64133;56.002;37.208;2022-11-10T19:43:37;99300.53;;;6.92;84.66
75549;BME280;64133;56.002;37.208;2022-11-10T19:48:41;99312.86;;;6.97;84.78
75549;BME280;64133;56.002;37.208;2022-11-10T19:53:46;99317.55;;;6.92;84.72
75549;BME280;64133;56.002;37.208;2022-11-10T19:58:51;99324.05;;;6.86;84.83
75549;BME280;64133;56.002;37.208;2022-11-10T20:03:56;99327.86;;;6.88;84.87
75549;BME280;64133;56.002;37.208;2022-11-10T20:09:01;99334.11;;;6.79;85.10
75549;BME280;64133;56.002;37.208;2022-11-10T20:14:06;99322.63;;;6.88;85.09
75549;BME280;64133;56.002;37.208;2022-11-10T20:19:11;99324.72;;;6.83;85.06
75549;BME280;64133;56.002;37.208;2022-11-10T20:24:16;99328.89;;;6.92;85.14
75549;BME280;64133;56.002;37.208;2022-11-10T20:29:21;99334.05;;;6.87;85.20
75549;BME280;64133;56.002;37.208;2022-11-10T20:34:26;99322.27;;;6.87;85.06
75549;BME280;64133;56.002;37.208;2022-11-10T20:39:32;99316.03;;;6.82;85.11
75549;BME280;64133;56.002;37.208;2022-11-10T20:44:36;99327.81;;;6.82;85.37
75549;BME280;64133;56.002;37.208;2022-11-10T20:49:41;99333.21;;;6.86;85.16
75549;BME280;64133;56.002;37.208;2022-11-10T20:54:46;99331.84;;;6.80;85.31
75549;BME280;64133;56.002;37.208;2022-11-10T20:59:51;99321.63;;;6.83;85.19
75549;BME280;64133;56.002;37.208;2022-11-10T21:04:56;99319.43;;;6.77;85.28
75549;BME280;64133;56.002;37.208;2022-11-10T21:10:01;99320.31;;;6.83;85.36
75549;BME280;64133;56.002;37.208;2022-11-10T21:15:08;99321.18;;;6.84;85.28
75549;BME280;64133;56.002;37.208;2022-11-10T21:20:13;99321.54;;;6.85;85.39
75549;BME280;64133;56.002;37.208;2022-11-10T21:25:18;99326.97;;;6.82;85.30
75549;BME280;64133;56.002;37.208;2022-11-10T21:30:23;99331.78;;;6.88;85.39
75549;BME280;64133;56.002;37.208;2022-11-10T21:35:28;99331.78;;;6.88;85.38
75549;BME280;64133;56.002;37.208;2022-11-10T21:40:33;99332.70;;;6.94;85.23
75549;BME280;64133;56.002;37.208;2022-11-10T21:45:38;99330.33;;;6.96;85.10
75549;BME280;64133;56.002;37.208;2022-11-10T21:50:43;99330.11;;;6.87;85.29
75549;BME280;64133;56.002;37.208;2022-11-10T21:55:48;99337.58;;;6.93;85.35
75549;BME280;64133;56.002;37.208;2022-11-10T22:00:59;99333.09;;;6.88;85.68
75549;BME280;64133;56.002;37.208;2022-11-10T22:06:05;99332.57;;;6.83;85.98
75549;BME280;64133;56.002;37.208;2022-11-10T22:11:11;99334.27;;;6.84;86.28
75549;BME280;64133;56.002;37.208;2022-11-10T22:16:36;99332.69;;;6.81;86.54
75549;BME280;64133;56.002;37.208;2022-11-10T22:21:56;99337.25;;;6.85;86.62
75549;BME280;64133;56.002;37.208;2022-11-10T22:27:02;99334.63;;;6.85;86.77
75549;BME280;64133;56.002;37.208;2022-11-10T22:32:06;99328.28;;;6.82;86.77
75549;BME280;64133;56.002;37.208;2022-11-10T22:37:11;99328.09;;;6.85;86.82
75549;BME280;64133;56.002;37.208;2022-11-10T22:42:16;99325.55;;;6.83;86.93
75549;BME280;64133;56.002;37.208;2022-11-10T22:47:38;99327.73;;;6.84;87.01
75549;BME280;64133;56.002;37.208;2022-11-10T22:53:09;99332.57;;;6.83;87.40
75549;BME280;64133;56.002;37.208;2022-11-10T22:58:13;99322.21;;;6.81;87.57
75549;BME280;64133;56.002;37.208;2022-11-10T23:03:18;99318.91;;;6.72;87.73
75549;BME280;64133;56.002;37.208;2022-11-10T23:08:23;99318.79;;;6.73;88.11
75549;BME280;64133;56.002;37.208;2022-11-10T23:13:28;99320.22;;;6.72;88.20
75549;BME280;64133;56.002;37.208;2022-11-10T23:23:47;99314.86;;;6.73;88.40
75549;BME280;64133;56.002;37.208;2022-11-10T23:28:52;99315.98;;;6.76;88.57
75549;BME280;64133;56.002;37.208;2022-11-10T23:33:57;99311.38;;;6.80;88.59
75549;BME280;64133;56.002;37.208;2022-11-10T23:39:02;99308.76;;;6.80;88.68
75549;BME280;64133;56.002;37.208;2022-11-10T23:44:07;99318.76;;;6.80;88.64
75549;BME280;64133;56.002;37.208;2022-11-10T23:49:12;99313.88;;;6.82;88.64
75549;BME280;64133;56.002;37.208;2022-11-10T23:54:17;99312.09;;;6.82;88.71
75549;BME280;64133;56.002;37.208;2022-11-10T23:59:23;99314.24;;;6.83;88.62
